Time;durP1;ratioP1;P1;durP2;ratioP2;P2;SDS_P1;SDS_P2;PMS_P1;PMS_P2;Temp;Humidity;BMP_temperature;BMP_pressure;BME280_temperature;BME280_humidity;BME280_pressure;Samples;Min_cycle;Max_cycle;Signal;HPM_P1;HPM_P2
2023/03/10 00:01:34;;;;;;;17.35;8.95;;;;;;;2.15;97.69;99028.47;6094413;19;20025;-75
2023/03/10 00:03:39;;;;;;;17.77;8.52;;;;;;;2.14;97.57;99031.97;6099299;19;20086;-75
2023/03/10 00:05:50;;;;;;;15.65;8.20;;;;;;;2.09;97.71;99026.09;6097789;19;20011;-74
2023/03/10 00:08:01;;;;;;;19.60;9.65;;;;;;;2.09;97.86;99031.28;6095584;19;20047;-74
2023/03/10 00:10:09;;;;;;;18.33;9.30;;;;;;;2.08;97.69;99023.56;6073037;19;20007;-74
2023/03/10 00:12:15;;;;;;;18.52;8.77;;;;;;;2.08;98.01;99019.25;6094481;19;20025;-74
2023/03/10 00:14:21;;;;;;;16.52;8.68;;;;;;;2.09;97.67;99020.94;6081393;19;20014;-74
2023/03/10 00:16:32;;;;;;;18.38;8.65;;;;;;;2.06;97.70;99023.63;6073786;19;20014;-74
2023/03/10 00:18:44;;;;;;;17.23;8.23;;;;;;;2.07;97.83;99027.91;6098341;19;20019;-74
2023/03/10 00:20:52;;;;;;;18.17;8.20;;;;;;;2.05;97.73;99021.91;6088652;19;20007;-73
2023/03/10 00:23:00;;;;;;;15.30;7.95;;;;;;;2.07;97.83;99029.66;6048521;19;20051;-75
2023/03/10 00:25:14;;;;;;;14.73;7.47;;;;;;;2.07;97.70;99032.25;6073219;19;20026;-75
2023/03/10 00:27:19;;;;;;;18.58;8.25;;;;;;;2.04;97.92;99030.59;6096864;19;20023;-76
2023/03/10 00:29:30;;;;;;;14.80;8.10;;;;;;;2.05;97.96;99023.66;6076372;19;20014;-75
2023/03/10 00:31:38;;;;;;;16.90;8.25;;;;;;;2.08;97.90;99015.78;6095559;19;20022;-75
2023/03/10 00:33:43;;;;;;;17.85;8.93;;;;;;;2.05;97.92;99014.16;6075551;19;20223;-76
2023/03/10 00:35:52;;;;;;;13.95;7.60;;;;;;;2.03;97.73;99015.09;6097582;19;20847;-75
2023/03/10 00:38:01;;;;;;;16.00;7.38;;;;;;;2.05;97.71;99008.13;6098682;19;20322;-75
2023/03/10 00:40:11;;;;;;;17.70;8.38;;;;;;;2.04;97.67;99015.06;6097220;19;20023;-76
2023/03/10 00:42:17;;;;;;;18.55;8.65;;;;;;;2.01;97.88;99012.56;6076142;19;20011;-74
2023/03/10 00:44:22;;;;;;;19.27;8.90;;;;;;;2.01;98.02;99015.16;6077442;19;20018;-73
2023/03/10 00:46:33;;;;;;;16.60;7.70;;;;;;;2.02;97.70;99009.06;6101611;19;20022;-73
2023/03/10 00:48:44;;;;;;;21.50;8.82;;;;;;;2.05;97.71;99015.91;6076520;19;20014;-73
2023/03/10 00:50:50;;;;;;;16.20;8.75;;;;;;;1.98;97.67;99016.13;6095236;19;20025;-73
2023/03/10 00:52:58;;;;;;;17.60;8.68;;;;;;;2.00;97.59;99008.28;6099701;19;20014;-74
2023/03/10 00:55:06;;;;;;;17.55;8.38;;;;;;;2.00;97.98;99002.25;6098521;19;20695;-73
2023/03/10 00:57:12;;;;;;;16.25;9.20;;;;;;;1.98;97.79;99002.31;6097013;19;20023;-74
2023/03/10 00:59:20;;;;;;;17.15;8.13;;;;;;;2.03;97.84;99004.72;6076515;19;20006;-74
2023/03/10 01:01:28;;;;;;;14.57;7.55;;;;;;;2.06;97.70;99002.06;6055589;19;20055;-75
2023/03/10 01:03:34;;;;;;;17.98;8.23;;;;;;;1.96;97.55;98998.94;6097819;19;20039;-75
2023/03/10 01:05:44;;;;;;;15.57;8.60;;;;;;;2.01;97.53;98999.63;6102878;19;20010;-75
2023/03/10 01:07:52;;;;;;;17.63;8.52;;;;;;;2.05;97.55;98984.81;6079896;19;20025;-74
2023/03/10 01:09:59;;;;;;;16.48;8.43;;;;;;;2.00;97.64;98982.38;6097109;19;20007;-75
2023/03/10 01:12:05;;;;;;;18.40;9.18;;;;;;;2.03;97.50;98986.59;6099575;19;20027;-75
2023/03/10 01:14:14;;;;;;;16.02;8.13;;;;;;;2.03;97.44;98984.88;6098317;19;20014;-75
2023/03/10 01:16:22;;;;;;;16.75;8.25;;;;;;;2.05;97.49;98980.47;6082202;19;20704;-74
2023/03/10 01:18:43;;;;;;;17.45;8.68;;;;;;;1.98;97.58;98976.44;6097156;19;20010;-75
2023/03/10 01:21:03;;;;;;;18.13;8.32;;;;;;;1.97;97.83;98975.59;6088506;19;20014;-75
2023/03/10 01:23:08;;;;;;;17.73;8.40;;;;;;;1.97;97.93;98974.72;6071259;19;20016;-75
2023/03/10 01:25:16;;;;;;;18.98;8.93;;;;;;;2.04;97.41;98977.94;6094168;19;20698;-74
2023/03/10 01:27:24;;;;;;;22.80;9.40;;;;;;;2.03;97.50;98976.22;6072736;19;20022;-74
2023/03/10 01:29:37;;;;;;;18.20;9.07;;;;;;;2.00;97.52;98966.81;6093522;19;20467;-75
2023/03/10 01:31:42;;;;;;;18.23;9.23;;;;;;;2.04;97.62;98962.41;6092635;19;20499;-75
2023/03/10 01:33:48;;;;;;;20.63;10.05;;;;;;;2.04;97.74;98965.84;6094381;19;20015;-74
2023/03/10 01:35:58;;;;;;;21.52;9.30;;;;;;;2.01;97.55;98958.19;6094335;19;20020;-75
2023/03/10 01:38:07;;;;;;;21.00;9.68;;;;;;;2.01;97.50;98957.34;6052618;19;20606;-74
2023/03/10 01:40:17;;;;;;;16.08;8.10;;;;;;;1.98;97.76;98955.69;6097752;19;20102;-76
2023/03/10 01:42:22;;;;;;;24.42;9.70;;;;;;;1.98;97.97;98959.13;6072829;19;20028;-74
2023/03/10 01:44:32;;;;;;;17.17;7.47;;;;;;;2.01;97.81;98957.34;6073918;19;20060;-73
2023/03/10 01:46:52;;;;;;;19.33;9.48;;;;;;;1.97;97.98;98949.69;6089053;19;20287;-76
2023/03/10 01:49:00;;;;;;;18.20;8.55;;;;;;;2.03;97.97;98946.03;6081774;19;20716;-75
2023/03/10 01:51:07;;;;;;;19.63;9.52;;;;;;;2.01;97.71;98945.22;6093743;19;20021;-74
2023/03/10 01:53:15;;;;;;;21.08;8.98;;;;;;;1.96;97.74;98944.53;6094369;19;20010;-75
2023/03/10 01:55:27;;;;;;;22.00;10.90;;;;;;;1.94;97.87;98954.94;6075450;19;20466;-75
2023/03/10 01:57:38;;;;;;;22.40;10.23;;;;;;;2.03;97.87;98946.03;6090169;19;20683;-74
2023/03/10 02:00:10;;;;;;;;;;;;;;;;;;;;;
2023/03/10 02:02:18;;;;;;;22.58;9.57;;;;;;;1.95;97.92;98933.34;6039966;19;20255;-75
2023/03/10 02:04:34;;;;;;;18.50;9.00;;;;;;;1.96;98.17;98929.00;6096393;19;20022;-75
2023/03/10 02:06:46;;;;;;;21.00;9.02;;;;;;;1.99;98.13;98931.47;6075476;19;20025;-74
2023/03/10 02:09:03;;;;;;;22.23;9.65;;;;;;;1.96;98.19;98923.81;6093270;19;20015;-74
2023/03/10 02:11:14;;;;;;;20.38;9.63;;;;;;;1.97;98.38;98917.72;6096997;19;20011;-74
2023/03/10 02:13:27;;;;;;;19.73;9.45;;;;;;;2.04;97.98;98916.63;6089984;19;20003;-75
2023/03/10 02:15:53;;;;;;;;;;;;;;;1.99;98.16;98908.16;6089461;19;20053;-75
2023/03/10 02:18:01;;;;;;;19.25;8.70;;;;;;;2.05;97.96;98907.09;6073204;19;19923;-74
2023/03/10 02:20:21;;;;;;;17.52;8.10;;;;;;;2.05;98.13;98910.50;6089430;19;20021;-75
2023/03/10 02:22:28;;;;;;;18.15;8.75;;;;;;;2.05;97.83;98899.31;6095247;19;20015;-75
2023/03/10 02:24:43;;;;;;;16.75;8.18;;;;;;;2.08;97.94;98905.25;6094401;19;20026;-75
2023/03/10 02:26:54;;;;;;;17.83;7.68;;;;;;;2.15;97.86;98898.06;6086289;19;20476;-75
2023/03/10 02:29:07;;;;;;;18.65;9.00;;;;;;;2.07;97.89;98893.19;6049318;19;20014;-74
2023/03/10 02:31:16;;;;;;;22.08;9.70;;;;;;;2.04;97.89;98895.88;6076671;19;20010;-75
2023/03/10 02:33:26;;;;;;;19.25;9.52;;;;;;;2.06;98.01;98898.44;6073954;19;20629;-74
2023/03/10 02:35:33;;;;;;;19.27;9.32;;;;;;;2.07;98.07;98905.28;6091036;19;20010;-75
2023/03/10 02:37:39;;;;;;;19.02;9.00;;;;;;;1.99;97.94;98908.16;6070297;19;20713;-75
2023/03/10 02:39:47;;;;;;;18.65;8.88;;;;;;;2.02;98.14;98902.03;6071513;19;20019;-74
2023/03/10 02:41:55;;;;;;;18.60;8.38;;;;;;;1.98;98.08;98891.78;6093925;19;20011;-74
2023/03/10 02:44:07;;;;;;;16.40;8.55;;;;;;;1.98;98.39;98886.59;6075491;19;20018;-76
2023/03/10 02:46:17;;;;;;;18.90;8.98;;;;;;;2.03;98.31;98894.22;6093416;19;20035;-75
2023/03/10 02:48:26;;;;;;;16.50;8.65;;;;;;;2.10;98.17;98880.09;6097875;19;20014;-74
2023/03/10 02:50:38;;;;;;;17.23;8.55;;;;;;;2.07;98.07;98890.59;6095876;19;20010;-76
2023/03/10 02:52:52;;;;;;;17.90;9.10;;;;;;;2.10;97.74;98887.88;6076128;19;20082;-76
2023/03/10 02:54:57;;;;;;;18.58;9.55;;;;;;;2.06;98.22;98880.31;6076848;19;20007;-74
2023/03/10 02:57:02;;;;;;;19.27;8.68;;;;;;;2.05;97.90;98876.00;6096775;19;20066;-75
2023/03/10 02:59:11;;;;;;;18.00;8.85;;;;;;;2.02;98.13;98884.72;6095976;19;20351;-75
2023/03/10 03:01:16;;;;;;;20.42;9.80;;;;;;;2.01;98.12;98885.63;6099523;19;20363;-75
2023/03/10 03:03:33;;;;;;;20.67;9.55;;;;;;;2.02;98.03;98891.66;6080573;19;20007;-75
2023/03/10 03:05:41;;;;;;;19.23;9.60;;;;;;;2.03;98.02;98891.63;6096681;19;20027;-74
2023/03/10 03:07:46;;;;;;;18.70;8.85;;;;;;;2.06;98.35;98888.91;6099408;19;20019;-75
2023/03/10 03:09:54;;;;;;;14.95;8.93;;;;;;;2.04;98.18;98884.69;6098344;19;20107;-74
2023/03/10 03:12:00;;;;;;;17.88;8.40;;;;;;;2.04;97.97;98882.09;6096251;19;20684;-74
2023/03/10 03:14:06;;;;;;;19.70;9.10;;;;;;;2.04;98.19;98882.09;6094589;19;20006;-74
2023/03/10 03:16:14;;;;;;;20.20;9.05;;;;;;;2.09;97.92;98878.44;6097666;19;20014;-76
2023/03/10 03:18:22;;;;;;;19.05;8.73;;;;;;;2.05;98.03;98879.44;6098551;19;20010;-74
2023/03/10 03:20:30;;;;;;;18.98;8.65;;;;;;;2.07;98.05;98887.16;6093239;19;20021;-74
2023/03/10 03:22:35;;;;;;;17.10;8.13;;;;;;;2.05;98.16;98871.66;6076982;19;20021;-74
2023/03/10 03:24:40;;;;;;;16.48;8.32;;;;;;;2.03;98.02;98877.78;6074021;19;20014;-73
2023/03/10 03:26:45;;;;;;;18.52;7.97;;;;;;;2.00;97.99;98876.16;6098247;19;20690;-74
2023/03/10 03:28:51;;;;;;;17.80;7.63;;;;;;;2.00;98.27;98872.72;6052052;19;20562;-73
2023/03/10 03:30:56;;;;;;;18.20;8.82;;;;;;;2.03;98.26;98863.13;6090961;19;20048;-75
2023/03/10 03:33:05;;;;;;;21.85;9.32;;;;;;;2.03;98.16;98868.31;6079383;19;20652;-75
2023/03/10 03:35:21;;;;;;;20.00;7.93;;;;;;;2.03;98.27;98867.44;6096839;19;20536;-74
2023/03/10 03:37:29;;;;;;;15.60;8.32;;;;;;;1.98;97.87;98873.66;6060861;19;20890;-74
2023/03/10 03:39:37;;;;;;;20.20;8.30;;;;;;;1.96;98.23;98866.84;6073777;19;20006;-75
2023/03/10 03:41:56;;;;;;;;;;;;;;;;;;;;;
2023/03/10 03:44:02;;;;;;;17.80;8.48;;;;;;;1.96;98.20;98872.00;6051212;19;20080;-75
2023/03/10 03:46:10;;;;;;;16.17;8.88;;;;;;;1.95;98.45;98873.75;6096331;19;20023;-74
2023/03/10 03:48:21;;;;;;;16.05;8.30;;;;;;;1.93;98.33;98864.38;6075405;19;20014;-75
2023/03/10 03:50:27;;;;;;;19.83;8.65;;;;;;;1.96;98.27;98862.50;6073774;19;20122;-75
2023/03/10 03:52:36;;;;;;;18.13;8.57;;;;;;;1.94;98.20;98866.03;6076990;19;20643;-75
2023/03/10 03:54:41;;;;;;;17.95;7.93;;;;;;;1.97;98.37;98865.91;6079548;19;20774;-74
2023/03/10 03:56:55;;;;;;;18.48;8.70;;;;;;;1.98;98.12;98876.25;6100689;19;20039;-75
2023/03/10 03:59:00;;;;;;;;;;;;;;;1.99;98.00;98871.91;6075006;19;20071;-75
2023/03/10 04:01:31;;;;;;;16.08;8.75;;;;;;;1.97;98.41;98852.97;6073202;19;19926;-74
2023/03/10 04:03:55;;;;;;;16.77;8.50;;;;;;;1.92;98.39;98852.28;6098106;19;20021;-75
2023/03/10 04:06:02;;;;;;;17.38;8.23;;;;;;;1.93;98.53;98844.47;6085526;19;20011;-75
2023/03/10 04:08:09;;;;;;;18.38;7.43;;;;;;;1.99;98.46;98861.53;6102543;19;20014;-75
2023/03/10 04:10:18;;;;;;;17.58;7.90;;;;;;;1.94;98.08;98838.38;6101289;19;20619;-75
2023/03/10 04:12:26;;;;;;;14.38;7.03;;;;;;;1.95;97.98;98827.16;6099158;19;20010;-75
2023/03/10 04:14:36;;;;;;;16.80;7.80;;;;;;;1.92;98.02;98853.16;6075516;19;20029;-75
2023/03/10 04:16:41;;;;;;;17.50;7.43;;;;;;;1.94;98.11;98853.09;6097321;19;20010;-75
2023/03/10 04:18:51;;;;;;;16.73;7.68;;;;;;;1.91;98.26;98859.22;6071796;19;20022;-75
2023/03/10 04:20:58;;;;;;;16.77;6.95;;;;;;;1.93;98.18;98851.41;6065821;19;20014;-74
2023/03/10 04:23:03;;;;;;;17.27;8.85;;;;;;;1.93;98.02;98861.78;6094712;19;20506;-76
2023/03/10 04:25:09;;;;;;;17.55;8.82;;;;;;;1.89;98.00;98858.44;6095454;19;20030;-75
2023/03/10 04:27:18;;;;;;;17.52;7.57;;;;;;;1.89;98.13;98861.03;6097565;19;20515;-76
2023/03/10 04:29:28;;;;;;;16.52;8.05;;;;;;;1.95;98.37;98865.16;6099328;19;20014;-75
2023/03/10 04:31:36;;;;;;;20.42;9.02;;;;;;;1.92;98.00;98867.84;6094716;19;20042;-75
2023/03/10 04:33:40;;;;;;;17.70;8.32;;;;;;;1.88;98.14;98866.28;6091969;19;20018;-75
2023/03/10 04:35:50;;;;;;;18.77;9.88;;;;;;;1.89;98.25;98861.03;6093851;19;20026;-75
2023/03/10 04:37:55;;;;;;;17.35;8.35;;;;;;;1.90;98.16;98860.13;6094734;19;20103;-75
2023/03/10 04:40:00;;;;;;;19.23;7.90;;;;;;;1.92;98.00;98862.66;6095729;19;20025;-75
2023/03/10 04:42:20;;;;;;;14.60;7.15;;;;;;;1.90;98.13;98856.72;6091393;19;20155;-75
2023/03/10 04:44:25;;;;;;;18.65;8.35;;;;;;;1.93;97.97;98860.03;6096837;19;20018;-76
2023/03/10 04:46:35;;;;;;;17.70;8.55;;;;;;;1.89;97.86;98865.38;6073798;19;20511;-76
2023/03/10 04:48:42;;;;;;;16.20;6.60;;;;;;;1.84;97.97;98862.09;6097734;19;20011;-74
2023/03/10 04:50:57;;;;;;;18.98;7.80;;;;;;;1.90;98.25;98856.72;6095449;19;20010;-75
2023/03/10 04:53:02;;;;;;;18.77;7.63;;;;;;;1.85;97.92;98854.28;6067171;19;20245;-74
2023/03/10 04:55:08;;;;;;;17.05;7.53;;;;;;;1.84;98.06;98847.41;6095719;19;20011;-74
2023/03/10 04:57:14;;;;;;;19.20;8.65;;;;;;;1.87;98.06;98841.25;6076559;19;20006;-74
2023/03/10 04:59:21;;;;;;;17.23;8.38;;;;;;;1.81;98.05;98842.34;6096113;19;20015;-75
2023/03/10 05:01:31;;;;;;;22.40;8.57;;;;;;;1.84;98.08;98833.59;6079616;19;20773;-76
2023/03/10 05:03:37;;;;;;;20.13;8.35;;;;;;;1.80;98.11;98837.22;6098592;19;20102;-75
2023/03/10 05:05:47;;;;;;;19.80;7.32;;;;;;;1.81;98.08;98841.50;6089072;19;20028;-74
2023/03/10 05:07:56;;;;;;;19.65;8.02;;;;;;;1.80;98.18;98837.22;6096789;19;20702;-75
2023/03/10 05:10:01;;;;;;;15.15;7.90;;;;;;;1.83;98.18;98835.34;6091494;19;20015;-74
2023/03/10 05:12:08;;;;;;;19.23;8.35;;;;;;;1.83;97.97;98837.09;6097580;19;20018;-75
2023/03/10 05:14:15;;;;;;;18.55;7.65;;;;;;;1.88;97.95;98837.78;6094764;19;20015;-75
2023/03/10 05:16:23;;;;;;;14.98;6.63;;;;;;;1.83;97.87;98829.34;6097460;19;20694;-74
2023/03/10 05:18:28;;;;;;;23.75;8.02;;;;;;;1.82;98.12;98832.81;6094954;19;20678;-75
2023/03/10 05:20:35;;;;;;;18.02;8.07;;;;;;;1.86;98.08;98831.81;6099949;19;20011;-75
2023/03/10 05:22:41;;;;;;;21.00;9.10;;;;;;;1.82;98.22;98831.09;6094382;19;20007;-75
2023/03/10 05:24:49;;;;;;;21.63;9.30;;;;;;;1.83;98.38;98829.34;6098925;19;20047;-75
2023/03/10 05:26:54;;;;;;;17.30;8.07;;;;;;;1.84;98.40;98828.44;6092422;19;20010;-75
2023/03/10 05:29:00;;;;;;;17.52;8.75;;;;;;;1.84;98.08;98836.19;6093926;19;20499;-75
2023/03/10 05:31:10;;;;;;;22.00;7.93;;;;;;;1.86;98.42;98827.47;6094798;19;20010;-75
2023/03/10 05:33:17;;;;;;;20.08;8.77;;;;;;;1.83;97.97;98847.47;6097624;19;20015;-75
2023/03/10 05:35:22;;;;;;;19.27;7.13;;;;;;;1.86;97.93;98832.66;6093292;19;20018;-75
2023/03/10 05:37:29;;;;;;;20.42;8.82;;;;;;;1.81;98.27;98838.91;6095552;19;20018;-75
2023/03/10 05:39:33;;;;;;;18.42;7.03;;;;;;;1.90;98.25;98830.81;6096929;19;20098;-75
2023/03/10 05:41:41;;;;;;;19.23;7.65;;;;;;;1.84;98.20;98831.00;6096843;19;20018;-75
2023/03/10 05:43:48;;;;;;;22.05;8.90;;;;;;;1.86;98.16;98829.22;6093943;19;20680;-75
2023/03/10 05:45:58;;;;;;;17.50;7.82;;;;;;;1.85;98.27;98828.38;6096929;19;20003;-76
2023/03/10 05:48:03;;;;;;;16.35;7.07;;;;;;;1.83;98.33;98834.53;6077083;19;20011;-75
2023/03/10 05:50:10;;;;;;;17.98;6.60;;;;;;;1.86;98.19;98839.59;6093890;19;20014;-75
2023/03/10 05:52:21;;;;;;;15.30;7.10;;;;;;;1.84;98.03;98851.72;6094380;19;20043;-75
2023/03/10 05:54:29;;;;;;;19.35;8.20;;;;;;;1.91;98.22;98843.69;6096207;19;20082;-76
2023/03/10 05:56:36;;;;;;;18.58;8.13;;;;;;;1.89;98.28;98855.00;6096437;19;20017;-75
2023/03/10 05:58:49;;;;;;;15.48;7.25;;;;;;;1.85;98.13;98849.09;6093874;19;20014;-75
2023/03/10 06:00:59;;;;;;;16.13;7.32;;;;;;;1.88;98.35;98841.22;6044901;19;20121;-75
2023/03/10 06:03:21;;;;;;;14.15;6.10;;;;;;;1.91;98.00;98842.84;6090234;19;20018;-75
2023/03/10 06:05:33;;;;;;;18.58;6.35;;;;;;;1.89;98.02;98839.47;6067450;19;20249;-75
2023/03/10 06:07:46;;;;;;;18.90;6.53;;;;;;;1.86;98.32;98842.16;6076124;19;20586;-75
2023/03/10 06:09:53;;;;;;;15.30;6.43;;;;;;;1.85;98.27;98835.31;6095034;19;20539;-76
2023/03/10 06:12:12;;;;;;;19.85;6.47;;;;;;;1.85;98.19;98848.25;6071920;19;20357;-75
2023/03/10 06:14:38;;;;;;;14.20;5.55;;;;;;;1.85;98.27;98843.09;6069685;19;20702;-75
2023/03/10 06:16:52;;;;;;;12.85;5.20;;;;;;;1.85;97.99;98838.75;6065034;19;20002;-75
2023/03/10 06:21:18;;;;;;;14.82;5.50;;;;;;;1.85;98.23;98845.69;6097766;19;20687;-74
2023/03/10 06:23:29;;;;;;;12.85;4.93;;;;;;;1.88;98.19;98845.56;6080229;19;20014;-75
2023/03/10 06:25:34;;;;;;;12.82;5.80;;;;;;;1.85;98.18;98845.69;6104160;19;20010;-75
2023/03/10 06:27:40;;;;;;;11.88;5.28;;;;;;;1.84;97.88;98851.72;6101377;19;20015;-76
2023/03/10 06:29:48;;;;;;;15.15;5.82;;;;;;;1.83;97.95;98856.06;6098212;19;20102;-75
2023/03/10 06:31:53;;;;;;;15.82;5.82;;;;;;;1.81;98.23;98842.34;6100981;19;20007;-75
2023/03/10 06:33:59;;;;;;;14.23;4.88;;;;;;;1.83;98.33;98847.47;6102146;19;20027;-75
2023/03/10 06:36:15;;;;;;;11.48;5.55;;;;;;;1.81;98.21;98846.69;6102771;19;20560;-75
2023/03/10 06:41:22;;;;;;;14.40;5.00;;;;;;;1.88;98.54;98853.31;5979105;19;20027;-75
2023/03/10 06:43:38;;;;;;;15.20;6.03;;;;;;;1.86;98.41;98849.94;6080433;19;21064;-74
2023/03/10 06:45:51;;;;;;;12.85;5.35;;;;;;;1.85;98.45;98856.88;6074813;19;20307;-75
2023/03/10 06:48:14;;;;;;;11.93;4.68;;;;;;;1.92;98.43;98858.34;6097096;19;20018;-75
2023/03/10 06:50:19;;;;;;;;;;;;;;;1.95;98.48;98858.22;6057564;19;20038;-75
2023/03/10 06:52:32;;;;;;;11.35;5.25;;;;;;;1.94;98.41;98847.91;6022894;19;19918;-74
2023/03/10 06:54:42;;;;;;;13.75;5.95;;;;;;;1.94;98.23;98843.56;6079387;19;20028;-75
2023/03/10 06:56:54;;;;;;;10.07;4.15;;;;;;;1.95;97.92;98854.78;6070318;19;20014;-74
2023/03/10 06:59:06;;;;;;;13.18;4.80;;;;;;;1.97;98.26;98848.66;6080939;19;20472;-75
2023/03/10 07:01:33;;;;;;;11.10;4.13;;;;;;;1.97;98.31;98852.97;6104774;19;20621;-76
2023/03/10 07:03:40;;;;;;;12.02;3.88;;;;;;;1.96;98.11;98854.72;6076994;19;20017;-77
2023/03/10 07:05:57;;;;;;;13.93;5.28;;;;;;;1.99;97.91;98846.00;6096422;19;20042;-74
2023/03/10 07:08:05;;;;;;;10.77;4.72;;;;;;;1.99;97.96;98851.16;6103688;19;20018;-75
2023/03/10 07:10:15;;;;;;;8.30;3.42;;;;;;;1.98;97.90;98850.34;6082942;19;20739;-75
2023/03/10 07:12:21;;;;;;;10.70;4.90;;;;;;;1.95;98.25;98847.03;6059595;19;20613;-74
2023/03/10 07:14:27;;;;;;;10.32;4.60;;;;;;;1.98;98.08;98849.50;6098807;19;20403;-75
2023/03/10 07:16:36;;;;;;;8.07;4.20;;;;;;;1.95;98.03;98840.09;6098454;19;20069;-75
2023/03/10 07:18:42;;;;;;;11.18;4.45;;;;;;;1.99;98.15;98846.00;6098459;19;20223;-74
2023/03/10 07:20:51;;;;;;;12.98;4.70;;;;;;;2.00;98.20;98850.25;6098580;19;20029;-76
2023/03/10 07:22:57;;;;;;;11.10;3.95;;;;;;;1.96;98.07;98846.94;6070696;19;20031;-75
2023/03/10 07:25:03;;;;;;;11.63;4.47;;;;;;;1.96;98.29;98844.34;6099042;19;20011;-74
2023/03/10 07:27:08;;;;;;;12.93;5.40;;;;;;;2.00;98.03;98845.06;6096576;19;20018;-75
2023/03/10 07:29:16;;;;;;;8.13;3.58;;;;;;;1.96;98.25;98841.78;6073847;19;20300;-74
2023/03/10 07:31:21;;;;;;;10.07;4.47;;;;;;;2.03;98.00;98841.53;6096220;19;20694;-74
2023/03/10 07:33:34;;;;;;;9.38;4.35;;;;;;;2.06;98.25;98847.47;6081550;19;20021;-75
2023/03/10 07:35:41;;;;;;;12.52;5.57;;;;;;;2.09;98.17;98852.50;6101837;19;20027;-77
2023/03/10 07:37:46;;;;;;;12.65;4.75;;;;;;;2.15;98.14;98854.88;6096939;19;20358;-75
2023/03/10 07:39:51;;;;;;;10.10;3.83;;;;;;;2.20;97.90;98852.94;6100421;19;20022;-74
2023/03/10 07:41:56;;;;;;;10.80;5.18;;;;;;;2.15;98.00;98861.81;6076001;19;20845;-75
2023/03/10 07:44:02;;;;;;;10.43;4.63;;;;;;;2.14;97.95;98863.56;6075078;19;20613;-75
2023/03/10 07:46:09;;;;;;;10.93;5.05;;;;;;;2.14;97.75;98866.16;6098324;19;20014;-75
2023/03/10 07:48:15;;;;;;;11.60;4.28;;;;;;;2.11;97.81;98866.25;6098539;19;20550;-75
2023/03/10 07:50:30;;;;;;;11.13;4.28;;;;;;;2.19;97.93;98872.00;6098724;19;20700;-75
2023/03/10 07:52:36;;;;;;;11.75;5.15;;;;;;;2.22;98.07;98873.63;6072753;19;21974;-73
2023/03/10 07:54:46;;;;;;;11.55;4.78;;;;;;;2.14;97.64;98873.91;6099600;19;20039;-75
2023/03/10 07:56:51;;;;;;;11.77;4.70;;;;;;;2.14;97.91;98871.31;6074080;19;20039;-74
2023/03/10 07:59:00;;;;;;;11.65;5.40;;;;;;;2.19;98.06;98874.59;6099953;19;20014;-76
2023/03/10 08:01:09;;;;;;;13.18;4.22;;;;;;;2.17;97.84;98871.19;6077255;19;20553;-75
2023/03/10 08:03:14;;;;;;;12.32;5.18;;;;;;;2.26;97.84;98877.78;6094965;19;20027;-75
2023/03/10 08:05:20;;;;;;;13.63;5.07;;;;;;;2.18;97.76;98869.44;6099328;19;20034;-75
2023/03/10 08:07:31;;;;;;;14.20;5.30;;;;;;;2.19;97.96;98877.19;6078358;19;20006;-75
2023/03/10 08:09:38;;;;;;;14.50;5.50;;;;;;;2.18;97.72;98879.81;6091980;19;20022;-75
2023/03/10 08:11:44;;;;;;;11.45;4.82;;;;;;;2.21;97.66;98871.91;6099008;19;20527;-76
2023/03/10 08:13:49;;;;;;;15.32;5.57;;;;;;;2.26;97.78;98877.78;6100470;19;20010;-75
2023/03/10 08:15:59;;;;;;;10.60;5.40;;;;;;;2.22;97.91;98880.56;6098129;19;20025;-74
2023/03/10 08:18:04;;;;;;;11.88;5.00;;;;;;;2.25;97.91;98872.66;6101122;19;20014;-74
2023/03/10 08:20:13;;;;;;;10.80;4.85;;;;;;;2.23;97.73;98877.91;6078600;19;20019;-74
2023/03/10 08:22:20;;;;;;;11.38;4.53;;;;;;;2.26;97.96;98880.38;6099021;19;20050;-74
2023/03/10 08:24:30;;;;;;;13.23;5.05;;;;;;;2.23;97.65;98877.06;6097753;19;20025;-74
2023/03/10 08:26:36;;;;;;;11.98;4.88;;;;;;;2.23;97.90;98874.47;6095234;19;20021;-75
2023/03/10 08:28:41;;;;;;;11.27;4.32;;;;;;;2.26;97.84;98879.53;6097510;19;20026;-76
2023/03/10 08:30:48;;;;;;;10.32;4.38;;;;;;;2.27;97.86;98871.72;6096758;19;20107;-75
2023/03/10 08:33:09;;;;;;;8.95;4.70;;;;;;;2.28;97.74;98872.53;6072597;19;20011;-74
2023/03/10 08:35:15;;;;;;;8.48;3.72;;;;;;;2.25;97.87;98870.06;6098104;19;20024;-74
2023/03/10 08:37:21;;;;;;;9.73;4.55;;;;;;;2.20;97.86;98862.47;6098164;19;20018;-74
2023/03/10 08:39:30;;;;;;;9.95;4.57;;;;;;;2.26;97.94;98874.34;6096468;19;20026;-75
2023/03/10 08:41:40;;;;;;;13.50;5.32;;;;;;;2.24;98.23;98879.59;6100009;19;20039;-74
2023/03/10 08:43:50;;;;;;;12.30;5.35;;;;;;;2.25;97.95;98889.06;6092670;19;20014;-74
2023/03/10 08:45:57;;;;;;;11.43;4.53;;;;;;;2.23;98.39;98890.00;6093392;19;20031;-76
2023/03/10 08:48:08;;;;;;;9.93;3.97;;;;;;;2.30;98.35;98894.06;6090690;19;20727;-74
2023/03/10 08:50:16;;;;;;;11.57;5.20;;;;;;;2.33;97.87;98893.94;6092994;19;20570;-73
2023/03/10 08:52:24;;;;;;;9.25;4.10;;;;;;;2.23;97.80;98890.84;6093940;19;20022;-76
2023/03/10 08:54:40;;;;;;;9.15;4.38;;;;;;;2.22;97.79;98888.34;6097028;19;20683;-75
2023/03/10 08:56:51;;;;;;;8.15;3.60;;;;;;;2.19;97.70;98892.72;6094368;19;20021;-74
2023/03/10 08:58:59;;;;;;;9.75;4.45;;;;;;;2.29;97.71;98892.38;6065952;19;20015;-75
2023/03/10 09:01:04;;;;;;;10.85;4.03;;;;;;;2.29;97.65;98900.13;6092688;19;20011;-75
2023/03/10 09:03:13;;;;;;;7.82;3.90;;;;;;;2.29;97.41;98905.31;6094963;19;20018;-75
2023/03/10 09:05:22;;;;;;;8.30;4.13;;;;;;;2.35;97.31;98918.06;6098976;19;20759;-75
2023/03/10 09:10:34;;;;;;;6.78;2.92;;;;;;;2.26;97.45;98915.81;6073146;19;20015;-74
2023/03/10 09:13:03;;;;;;;5.45;2.90;;;;;;;2.26;97.27;98916.66;5990026;19;20039;-74
2023/03/10 09:15:24;;;;;;;7.10;3.17;;;;;;;2.26;97.53;98915.81;6089927;19;20394;-77
2023/03/10 09:17:46;;;;;;;8.20;3.97;;;;;;;2.26;97.54;98921.00;6069194;19;20090;-75
2023/03/10 09:19:58;;;;;;;6.20;3.10;;;;;;;2.28;97.37;98919.19;6065843;19;20018;-75
2023/03/10 09:22:11;;;;;;;7.97;3.25;;;;;;;2.26;96.97;98921.00;6094809;19;20749;-75
2023/03/10 09:24:20;;;;;;;7.82;3.60;;;;;;;2.27;97.12;98923.53;6036239;19;20010;-76
2023/03/10 09:26:38;;;;;;;5.70;3.15;;;;;;;2.30;97.38;98927.75;6087526;19;20018;-76
2023/03/10 09:28:50;;;;;;;5.95;3.17;;;;;;;2.33;97.18;98925.88;6084819;19;20683;-76
2023/03/10 09:31:04;;;;;;;6.32;3.30;;;;;;;2.38;97.13;98921.38;6029410;19;20022;-76
2023/03/10 09:33:19;;;;;;;6.65;3.50;;;;;;;2.41;97.26;98921.25;6072327;19;20013;-76
2023/03/10 09:35:26;;;;;;;4.95;2.95;;;;;;;2.44;97.40;98922.06;6073830;19;20014;-76
2023/03/10 09:37:36;;;;;;;7.97;3.38;;;;;;;2.47;97.06;98925.34;6095428;19;20338;-76
2023/03/10 09:39:41;;;;;;;7.35;3.30;;;;;;;2.44;97.36;98924.66;6094315;19;20718;-76
2023/03/10 09:42:10;;;;;;;7.10;3.53;;;;;;;2.49;97.10;98926.16;6100239;19;20015;-76
2023/03/10 09:44:33;;;;;;;6.70;3.60;;;;;;;2.45;97.35;98934.09;6094927;19;20523;-76
2023/03/10 09:46:49;;;;;;;4.55;2.50;;;;;;;2.44;97.17;98929.84;6069816;19;20082;-76
2023/03/10 09:49:03;;;;;;;5.57;2.80;;;;;;;2.36;97.12;98935.31;6097812;19;20013;-77
2023/03/10 09:51:18;;;;;;;5.18;2.60;;;;;;;2.32;97.09;98934.59;6096251;19;20023;-75
2023/03/10 09:53:48;;;;;;;5.78;2.72;;;;;;;2.31;97.17;98943.25;6050578;19;20098;-76
2023/03/10 09:55:53;;;;;;;3.67;2.28;;;;;;;2.36;96.91;98932.72;6103369;19;20014;-76
2023/03/10 09:58:07;;;;;;;5.75;2.70;;;;;;;2.37;97.32;98937.84;6104734;19;20018;-75
2023/03/10 10:00:23;;;;;;;5.57;2.67;;;;;;;2.40;97.24;98942.91;6082196;19;20094;-76
2023/03/10 10:02:37;;;;;;;5.00;1.98;;;;;;;2.33;96.61;98949.22;6101252;19;20021;-75
2023/03/10 10:04:43;;;;;;;5.53;2.45;;;;;;;2.32;96.75;98950.13;6103162;19;20023;-76
2023/03/10 10:06:57;;;;;;;5.07;2.95;;;;;;;2.35;96.84;98951.75;6107325;19;20723;-76
2023/03/10 10:09:11;;;;;;;5.65;2.88;;;;;;;2.38;97.31;98955.06;6106234;19;20780;-77
2023/03/10 10:11:20;;;;;;;6.53;3.08;;;;;;;2.37;96.97;98960.31;6067710;19;20043;-77
2023/03/10 10:13:34;;;;;;;6.45;3.25;;;;;;;2.37;97.10;98956.00;6103930;19;20106;-76
2023/03/10 10:15:44;;;;;;;6.97;2.58;;;;;;;2.39;97.09;98966.28;6104980;19;20681;-76
2023/03/10 10:18:04;;;;;;;5.78;2.50;;;;;;;2.36;96.86;98961.22;6102529;19;20710;-76
2023/03/10 10:20:28;;;;;;;6.72;3.20;;;;;;;2.34;96.63;98975.97;6102338;19;20015;-76
2023/03/10 10:22:40;;;;;;;4.00;2.42;;;;;;;2.37;96.83;98975.84;6071107;19;20349;-76
2023/03/10 10:25:02;;;;;;;7.10;3.00;;;;;;;2.30;96.71;98983.03;6070963;19;20040;-76